createdAt,value
2019-04-01T00:01:21.766Z,37.83
2019-04-01T00:03:51.430Z,42.00
2019-04-01T00:06:21.217Z,41.90
2019-04-01T00:08:50.784Z,43.97
2019-04-01T00:11:20.585Z,39.43
2019-04-01T00:13:50.204Z,37.47
2019-04-01T00:16:19.909Z,40.17
2019-04-01T00:19:02.341Z,39.00
2019-04-01T00:21:21.556Z,35.97
2019-04-01T00:23:51.497Z,36.93
2019-04-01T00:26:21.534Z,35.73
2019-04-01T00:28:51.107Z,35.53
2019-04-01T00:31:21.869Z,34.97
2019-04-01T00:33:51.447Z,40.83
2019-04-01T00:36:21.726Z,39.60
2019-04-01T00:38:51.290Z,43.97
2019-04-01T00:41:21.016Z,36.80
2019-04-01T00:43:55.312Z,40.20
2019-04-01T00:46:25.406Z,35.70
2019-04-01T00:48:54.923Z,37.60
2019-04-01T00:51:25.207Z,40.97
2019-04-01T00:53:55.460Z,40.37
2019-04-01T00:56:25.507Z,40.13
2019-04-01T00:58:55.313Z,40.27
2019-04-01T01:01:25.003Z,38.83
2019-04-01T01:03:54.731Z,43.70
2019-04-01T01:06:24.456Z,37.63
2019-04-01T01:08:54.160Z,40.63
2019-04-01T01:11:23.843Z,34.73
2019-04-01T01:13:53.673Z,37.90
2019-04-01T01:16:23.332Z,36.30
2019-04-01T01:18:53.002Z,38.83
2019-04-01T01:21:22.808Z,37.27
2019-04-01T01:23:52.654Z,45.90
2019-04-01T01:26:22.229Z,42.70
2019-04-01T01:28:51.952Z,46.03
2019-04-01T01:31:21.533Z,38.87
2019-04-01T01:33:51.582Z,44.30
2019-04-01T01:36:21.631Z,46.03
2019-04-01T01:38:51.332Z,44.43
2019-04-01T01:41:20.869Z,61.67
2019-04-01T01:43:50.815Z,43.83
2019-04-01T01:46:20.383Z,43.97
2019-04-01T01:48:50.098Z,45.27
2019-04-01T01:51:20.040Z,50.30
2019-04-01T01:53:50.085Z,42.57
2019-04-01T01:56:19.685Z,49.87
2019-04-01T01:58:49.417Z,45.60
2019-04-01T02:01:19.516Z,45.93
2019-04-01T02:24:32.055Z,64.03
2019-04-01T02:27:01.977Z,57.10
2019-04-01T02:29:31.676Z,60.30
2019-04-01T02:32:01.477Z,66.03
2019-04-01T02:34:31.060Z,58.73
2019-04-01T02:37:01.081Z,69.83
2019-04-01T02:39:31.162Z,65.03
2019-04-01T02:42:01.181Z,66.27
2019-04-01T02:44:31.020Z,72.50
2019-04-01T02:47:00.769Z,69.37
2019-04-01T02:49:30.433Z,70.00
2019-04-01T02:52:01.045Z,70.87
2019-04-01T02:54:30.681Z,71.00
2019-04-01T02:57:00.373Z,72.87
2019-04-01T02:59:30.145Z,74.73
2019-04-01T03:02:00.002Z,73.77
2019-04-01T03:04:29.751Z,77.70
2019-04-01T03:06:59.670Z,82.43
2019-04-01T03:09:29.355Z,82.53
2019-04-01T03:11:59.337Z,80.87
2019-04-01T03:14:28.978Z,78.37
2019-04-01T03:16:58.589Z,81.73
2019-04-01T03:19:28.796Z,79.70
2019-04-01T03:21:58.412Z,77.63
2019-04-01T03:24:28.177Z,92.20
2019-04-01T03:26:57.724Z,91.00
2019-04-01T03:29:27.483Z,91.53
2019-04-01T03:31:57.126Z,84.17
2019-04-01T03:34:26.766Z,92.57
2019-04-01T03:36:56.461Z,87.10
2019-04-01T03:39:26.577Z,89.63
2019-04-01T03:41:56.221Z,95.67
2019-04-01T03:44:26.154Z,97.20
2019-04-01T03:46:55.723Z,87.43
2019-04-01T03:49:25.472Z,96.37
2019-04-01T03:51:55.158Z,103.30
2019-04-01T03:54:24.883Z,102.13
2019-04-01T03:56:54.768Z,96.10
2019-04-01T03:59:24.614Z,98.43
2019-04-01T04:01:54.276Z,106.37
2019-04-01T04:04:25.025Z,104.47
2019-04-01T04:06:54.674Z,108.90
2019-04-01T04:09:24.826Z,93.70
2019-04-01T04:11:54.413Z,103.40
2019-04-01T04:14:24.013Z,104.63
2019-04-01T04:16:53.807Z,102.90
2019-04-01T04:19:23.496Z,106.63
2019-04-01T04:21:53.196Z,112.43
2019-04-01T04:24:23.350Z,108.03
2019-04-01T04:26:53.098Z,102.93
2019-04-01T04:29:22.736Z,104.40
2019-04-01T04:31:52.523Z,103.40
2019-04-01T04:34:22.436Z,95.73
2019-04-01T04:36:52.181Z,105.30
2019-04-01T04:39:21.901Z,101.93
2019-04-01T04:41:51.588Z,109.97
2019-04-01T04:44:21.415Z,118.10
2019-04-01T04:46:51.107Z,99.83
2019-04-01T04:49:21.203Z,100.47
2019-04-01T04:51:50.894Z,99.20
2019-04-01T04:54:20.888Z,98.70
2019-04-01T04:56:50.641Z,94.13
2019-04-01T04:59:20.427Z,102.90
2019-04-01T05:01:50.208Z,101.23
2019-04-01T05:04:19.906Z,103.27
2019-04-01T05:06:50.587Z,97.70
2019-04-01T05:09:20.687Z,100.00
2019-04-01T05:11:50.263Z,108.00
2019-04-01T05:14:20.016Z,102.80
2019-04-01T05:16:50.156Z,104.70
2019-04-01T05:19:20.981Z,89.33
2019-04-01T05:21:51.635Z,88.43
2019-04-01T05:24:22.030Z,96.23
2019-04-01T05:26:53.148Z,96.80
2019-04-01T05:29:24.712Z,98.83
2019-04-01T05:31:56.557Z,96.97
2019-04-01T05:34:28.137Z,93.80
2019-04-01T05:36:57.935Z,101.57
2019-04-01T05:39:27.804Z,91.90
2019-04-01T05:41:57.866Z,91.40
2019-04-01T05:44:28.717Z,89.57
2019-04-01T05:46:58.323Z,88.83
2019-04-01T05:49:28.263Z,93.93
2019-04-01T05:51:57.876Z,88.27
2019-04-01T05:54:27.900Z,84.60
2019-04-01T05:56:57.561Z,81.70
2019-04-01T05:59:27.847Z,91.80
2019-04-01T06:01:57.465Z,82.23
2019-04-01T06:04:27.317Z,74.57
2019-04-01T06:06:57.156Z,72.80
2019-04-01T06:09:27.039Z,70.57
2019-04-01T06:11:56.700Z,70.73
2019-04-01T06:14:27.042Z,74.57
2019-04-01T06:16:57.127Z,70.73
2019-04-01T06:19:26.915Z,74.17
2019-04-01T06:21:57.018Z,74.13
2019-04-01T06:24:26.929Z,80.00
2019-04-01T06:26:57.140Z,66.97
2019-04-01T06:29:26.852Z,77.53
2019-04-01T06:31:56.841Z,65.50
2019-04-01T06:34:26.526Z,77.00
2019-04-01T06:36:56.371Z,69.30
2019-04-01T06:39:27.176Z,68.13
2019-04-01T06:41:57.092Z,71.77
2019-04-01T06:44:26.778Z,71.20
2019-04-01T06:46:57.292Z,71.67
2019-04-01T06:49:27.096Z,70.67
2019-04-01T06:51:57.334Z,65.80
2019-04-01T06:54:27.156Z,75.00
2019-04-01T06:56:57.070Z,64.87
2019-04-01T06:59:26.982Z,65.63
2019-04-01T07:01:56.699Z,69.00
2019-04-01T07:04:26.531Z,65.50
2019-04-01T07:06:56.471Z,66.43
2019-04-01T07:09:26.505Z,73.27
2019-04-01T07:11:56.351Z,65.13
2019-04-01T07:14:26.351Z,58.70
2019-04-01T07:16:56.268Z,59.90
2019-04-01T07:19:26.582Z,67.27
2019-04-01T07:21:56.273Z,62.00
2019-04-01T07:24:26.158Z,61.40
2019-04-01T07:26:56.333Z,60.70
2019-04-01T07:29:26.235Z,58.00
2019-04-01T07:31:56.100Z,64.93
2019-04-01T07:34:26.574Z,61.17
2019-04-01T07:36:56.312Z,61.73
2019-04-01T07:39:26.140Z,59.80
2019-04-01T07:41:55.967Z,63.50
2019-04-01T07:44:27.597Z,62.53
2019-04-01T07:46:58.513Z,59.90
2019-04-01T07:49:28.737Z,64.27
2019-04-01T07:51:58.434Z,60.07
2019-04-01T07:54:28.379Z,66.03
2019-04-01T07:56:58.250Z,52.47
2019-04-01T07:59:28.220Z,58.90
2019-04-01T08:01:58.644Z,64.03
2019-04-01T08:04:28.752Z,61.73
2019-04-01T08:06:58.558Z,61.53
2019-04-01T08:09:28.941Z,55.80
2019-04-01T08:11:58.872Z,56.47
2019-04-01T08:14:28.997Z,63.70
2019-04-01T08:16:59.051Z,52.10
2019-04-01T08:19:28.970Z,62.60
2019-04-01T08:22:00.209Z,55.40
2019-04-01T08:24:29.886Z,60.10
2019-04-01T08:26:59.935Z,57.47
2019-04-01T08:29:30.781Z,54.30
2019-04-01T08:32:01.355Z,60.00
2019-04-01T08:34:31.635Z,53.70
2019-04-01T08:37:07.360Z,55.97
2019-04-01T08:39:37.262Z,60.03
2019-04-01T08:42:07.112Z,51.60
2019-04-01T08:44:37.476Z,56.33
2019-04-01T08:47:07.244Z,56.60
2019-04-01T08:49:37.395Z,64.83
2019-04-01T08:52:07.375Z,47.97
2019-04-01T08:54:37.177Z,55.53
2019-04-01T08:57:07.000Z,57.30
2019-04-01T08:59:37.742Z,46.40
2019-04-01T09:02:17.720Z,50.30
2019-04-01T09:04:39.411Z,50.80
2019-04-01T09:07:08.982Z,53.87
2019-04-01T09:09:39.539Z,49.83
2019-04-01T09:12:10.225Z,49.70
2019-04-01T09:14:41.015Z,54.43
2019-04-01T09:17:11.022Z,55.13
2019-04-01T09:19:40.827Z,55.00
2019-04-01T09:22:10.560Z,51.63
2019-04-01T09:24:40.517Z,48.20
2019-04-01T09:27:10.178Z,52.17
2019-04-01T09:29:39.983Z,48.70
2019-04-01T09:32:09.951Z,39.00
2019-04-01T09:34:39.850Z,43.83
2019-04-01T09:37:09.550Z,43.73
2019-04-01T09:39:39.340Z,52.27
2019-04-01T09:42:09.979Z,50.20
2019-04-01T09:44:40.138Z,48.50
2019-04-01T09:47:09.806Z,53.57
2019-04-01T09:49:40.734Z,48.00
2019-04-01T09:52:10.491Z,46.10
2019-04-01T09:54:40.281Z,48.20
2019-04-01T09:57:17.477Z,52.90
2019-04-01T09:59:41.616Z,50.20
2019-04-01T10:02:11.703Z,53.90
2019-04-01T10:04:41.453Z,47.40
2019-04-01T10:07:11.226Z,49.40
2019-04-01T10:09:41.277Z,48.93
2019-04-01T10:12:11.058Z,49.80
2019-04-01T10:14:40.890Z,46.90
2019-04-01T10:17:11.170Z,44.27
2019-04-01T10:19:40.820Z,45.50
2019-04-01T10:22:12.784Z,49.00
2019-04-01T10:24:42.755Z,47.83
2019-04-01T10:27:12.559Z,46.63
2019-04-01T10:29:42.246Z,52.27
2019-04-01T10:32:12.151Z,52.53
2019-04-01T10:34:42.164Z,48.23
2019-04-01T10:37:12.837Z,46.23
2019-04-01T10:39:42.614Z,53.33
2019-04-01T10:42:12.668Z,45.53
2019-04-01T10:44:43.243Z,46.13
2019-04-01T10:47:13.717Z,48.27
2019-04-01T10:49:43.848Z,48.27
2019-04-01T10:52:13.928Z,47.33
2019-04-01T10:54:43.882Z,44.50
2019-04-01T10:57:14.013Z,49.50
2019-04-01T10:59:43.943Z,48.10
2019-04-01T11:02:16.628Z,44.37
2019-04-01T11:04:46.110Z,47.40
2019-04-01T11:07:16.029Z,47.20
2019-04-01T11:09:47.747Z,45.87
2019-04-01T11:12:18.502Z,49.60
2019-04-01T11:14:48.312Z,43.43
2019-04-01T11:17:18.174Z,52.17
2019-04-01T11:19:48.608Z,44.00
2019-04-01T11:22:18.959Z,45.23
2019-04-01T11:24:48.874Z,49.10
2019-04-01T11:27:18.778Z,51.53
2019-04-01T11:29:49.046Z,45.53
2019-04-01T11:32:19.235Z,52.07
2019-04-01T11:34:49.561Z,55.77
2019-04-01T11:37:19.822Z,50.80
2019-04-01T11:39:49.698Z,50.33
2019-04-01T11:42:19.640Z,53.13
2019-04-01T11:44:50.281Z,59.90
2019-04-01T11:47:22.058Z,50.60
2019-04-01T11:49:52.683Z,49.10
2019-04-01T11:52:23.184Z,48.40
2019-04-01T11:54:53.005Z,55.00
2019-04-01T11:57:23.336Z,50.00
2019-04-01T11:59:53.755Z,51.50
2019-04-01T12:02:24.277Z,48.07
2019-04-01T12:04:54.190Z,49.77
2019-04-01T12:07:24.526Z,47.63
2019-04-01T12:09:55.314Z,54.37
2019-04-01T12:12:26.044Z,51.60
2019-04-01T12:14:56.413Z,47.03
2019-04-01T12:17:26.623Z,43.17
2019-04-01T12:19:56.313Z,44.90
2019-04-01T12:22:26.434Z,48.23
2019-04-01T12:24:56.276Z,53.33
2019-04-01T12:27:26.254Z,53.10
2019-04-01T12:29:56.576Z,49.17
2019-04-01T12:32:26.431Z,45.73
2019-04-01T12:34:56.267Z,49.07
2019-04-01T12:37:29.960Z,52.00
2019-04-01T12:39:58.942Z,42.37
2019-04-01T12:42:28.959Z,45.13
2019-04-01T12:44:59.704Z,48.57
2019-04-01T12:47:30.114Z,45.00
2019-04-01T12:50:01.318Z,53.90
2019-04-01T12:52:32.426Z,49.70
2019-04-01T12:55:02.721Z,43.80
2019-04-01T12:57:34.279Z,44.20
2019-04-01T13:00:05.156Z,43.63
2019-04-01T13:02:35.672Z,39.70
2019-04-01T13:05:06.396Z,38.90
2019-04-01T13:07:36.364Z,43.70
2019-04-01T13:10:07.173Z,44.57
2019-04-01T13:12:37.153Z,49.60
2019-04-01T13:15:07.374Z,45.87
2019-04-01T13:17:37.079Z,45.90
2019-04-01T13:20:07.158Z,47.67
2019-04-01T13:22:37.953Z,49.37
2019-04-01T13:25:08.258Z,49.83
2019-04-01T13:27:38.339Z,47.70
2019-04-01T13:30:09.823Z,46.87
2019-04-01T13:32:40.076Z,51.03
2019-04-01T13:35:10.678Z,49.50
2019-04-01T13:37:40.899Z,42.67
2019-04-01T13:40:11.536Z,42.30
2019-04-01T13:42:43.325Z,47.13
2019-04-01T13:45:14.380Z,43.10
2019-04-01T13:47:44.582Z,43.13
2019-04-01T13:50:16.462Z,44.20
2019-04-01T13:52:47.300Z,41.90
2019-04-01T13:55:17.692Z,44.23
2019-04-01T13:57:48.008Z,48.83
2019-04-01T14:00:20.224Z,41.53
2019-04-01T14:02:50.453Z,41.37
2019-04-01T14:05:20.281Z,44.30
2019-04-01T14:07:50.836Z,54.90
2019-04-01T14:10:20.941Z,46.10
2019-04-01T14:12:50.897Z,44.27
2019-04-01T14:15:20.957Z,39.30
2019-04-01T14:17:50.906Z,39.90
2019-04-01T14:20:20.820Z,40.70
2019-04-01T14:22:53.477Z,45.23
2019-04-01T14:25:22.373Z,43.90
2019-04-01T14:27:52.207Z,41.87
2019-04-01T14:30:22.456Z,42.57
2019-04-01T14:32:52.605Z,40.33
2019-04-01T14:35:23.867Z,37.97
2019-04-01T14:37:57.888Z,42.10
2019-04-01T14:40:25.665Z,38.97
2019-04-01T14:42:55.512Z,35.87
2019-04-01T14:45:25.808Z,37.67
2019-04-01T14:47:57.483Z,39.70
2019-04-01T14:50:27.240Z,36.70
2019-04-01T14:52:57.125Z,40.27
2019-04-01T14:55:27.480Z,42.80
2019-04-01T14:58:00.234Z,35.70
2019-04-01T15:00:28.827Z,41.40
2019-04-01T15:02:59.499Z,38.30
2019-04-01T15:05:32.901Z,36.43
2019-04-01T15:08:03.589Z,37.03
2019-04-01T15:10:33.622Z,41.40
2019-04-01T15:13:06.075Z,37.93
2019-04-01T15:15:36.160Z,39.00
2019-04-01T15:18:09.572Z,42.97
2019-04-01T15:20:37.966Z,36.17
2019-04-01T15:23:07.931Z,36.23
2019-04-01T15:25:38.052Z,38.20
2019-04-01T15:28:08.086Z,35.87
2019-04-01T15:30:38.090Z,37.90
2019-04-01T15:33:07.931Z,45.80
2019-04-01T15:35:37.994Z,39.43
2019-04-01T15:38:08.359Z,38.87
2019-04-01T15:40:38.739Z,32.00
2019-04-01T15:43:08.743Z,31.77
2019-04-01T15:45:38.712Z,37.13
2019-04-01T15:48:08.460Z,31.17
2019-04-01T15:50:38.693Z,31.77
2019-04-01T15:53:08.556Z,35.77
2019-04-01T15:55:38.902Z,39.43
2019-04-01T15:58:08.589Z,37.60
2019-04-01T16:00:40.068Z,39.70
2019-04-01T16:03:09.960Z,34.97
2019-04-01T16:05:40.189Z,33.37
2019-04-01T16:08:10.381Z,34.20
2019-04-01T16:10:40.305Z,38.77
2019-04-01T16:13:10.200Z,35.33
2019-04-01T16:15:39.910Z,33.50
2019-04-01T16:18:09.746Z,30.90
2019-04-01T16:20:39.775Z,38.43
2019-04-01T16:23:10.352Z,34.70
2019-04-01T16:25:40.277Z,32.70
2019-04-01T16:28:11.318Z,36.10
2019-04-01T16:30:41.796Z,36.43
2019-04-01T16:33:12.465Z,42.93
2019-04-01T16:35:42.812Z,31.43
2019-04-01T16:38:12.645Z,36.03
2019-04-01T16:40:42.800Z,34.43
2019-04-01T16:43:12.893Z,29.83
2019-04-01T16:45:43.090Z,33.67
2019-04-01T16:48:13.247Z,39.80
2019-04-01T16:50:43.364Z,33.47
2019-04-01T16:53:13.214Z,34.67
2019-04-01T16:55:43.397Z,32.13
2019-04-01T16:58:13.423Z,31.13
2019-04-01T17:00:43.868Z,33.73
2019-04-01T17:03:14.079Z,38.70
2019-04-01T17:05:44.385Z,40.90
2019-04-01T17:08:14.414Z,41.57
2019-04-01T17:10:45.981Z,30.90
2019-04-01T17:13:16.878Z,35.47
2019-04-01T17:15:46.940Z,34.90
2019-04-01T17:18:17.121Z,33.20
2019-04-01T17:20:46.821Z,37.40
2019-04-01T17:23:17.070Z,31.97
2019-04-01T17:25:47.114Z,34.30
2019-04-01T17:28:17.303Z,35.00
2019-04-01T17:30:47.311Z,31.93
2019-04-01T17:33:17.553Z,31.87
2019-04-01T17:35:47.407Z,32.93
2019-04-01T17:38:17.469Z,32.80
2019-04-01T17:40:47.492Z,36.67
2019-04-01T17:43:17.609Z,33.40
2019-04-01T17:45:47.578Z,32.70
2019-04-01T17:48:19.885Z,36.70
2019-04-01T17:50:49.978Z,37.37
2019-04-01T17:53:21.279Z,31.33
2019-04-01T17:55:51.054Z,36.47
2019-04-01T17:58:21.002Z,36.50
2019-04-01T18:00:54.726Z,33.83
2019-04-01T18:03:24.842Z,37.87
2019-04-01T18:05:54.746Z,33.70
2019-04-01T18:08:24.843Z,36.63
2019-04-01T18:10:54.686Z,35.53
2019-04-01T18:13:24.825Z,30.33
2019-04-01T18:15:57.346Z,35.40
2019-04-01T18:18:27.486Z,34.60
2019-04-01T18:20:57.825Z,37.17
2019-04-01T18:23:27.777Z,35.70
2019-04-01T18:25:58.411Z,34.63
2019-04-01T18:28:28.236Z,39.07
2019-04-01T18:30:58.158Z,35.87
2019-04-01T18:33:30.078Z,35.10
2019-04-01T18:35:59.778Z,42.00
2019-04-01T18:38:29.772Z,36.00
2019-04-01T18:40:59.944Z,34.00
2019-04-01T18:43:29.663Z,34.90
2019-04-01T18:46:00.323Z,36.93
2019-04-01T18:48:30.544Z,37.93
2019-04-01T18:51:00.325Z,37.83
2019-04-01T18:53:30.578Z,35.50
2019-04-01T18:56:00.844Z,35.33
2019-04-01T18:58:31.015Z,40.73
2019-04-01T19:01:04.213Z,39.20
2019-04-01T19:03:33.986Z,38.73
2019-04-01T19:06:03.721Z,29.50
2019-04-01T19:08:33.606Z,32.50
2019-04-01T19:11:03.475Z,40.43
2019-04-01T19:13:33.955Z,35.50
2019-04-01T19:16:05.922Z,32.80
2019-04-01T19:18:39.551Z,29.73
2019-04-01T19:21:08.926Z,32.40
2019-04-01T19:23:41.423Z,37.17
2019-04-01T19:26:11.193Z,35.77
2019-04-01T19:28:41.110Z,35.83
2019-04-01T19:31:12.004Z,35.17
2019-04-01T19:33:42.580Z,29.07
2019-04-01T19:36:12.338Z,35.00
2019-04-01T19:38:42.445Z,33.10
2019-04-01T19:41:12.445Z,34.20
2019-04-01T19:43:42.586Z,32.87
2019-04-01T19:46:12.922Z,31.13
2019-04-01T19:48:42.786Z,32.70
2019-04-01T19:51:12.704Z,31.57
2019-04-01T19:53:42.495Z,33.27
2019-04-01T19:56:12.656Z,33.80
2019-04-01T19:58:42.477Z,34.23
2019-04-01T20:01:12.270Z,31.67
2019-04-01T20:03:42.198Z,30.27
2019-04-01T20:06:12.094Z,37.77
2019-04-01T20:08:42.061Z,30.97
2019-04-01T20:11:11.895Z,32.83
2019-04-01T20:13:42.869Z,31.90
2019-04-01T20:16:13.059Z,35.20
2019-04-01T20:18:43.004Z,32.63
2019-04-01T20:21:12.969Z,33.43
2019-04-01T20:23:42.930Z,30.23
2019-04-01T20:26:12.735Z,39.00
2019-04-01T20:28:42.594Z,32.13
2019-04-01T20:31:12.544Z,28.57
2019-04-01T20:33:42.852Z,35.23
2019-04-01T20:36:13.326Z,35.10
2019-04-01T20:38:43.263Z,30.57
2019-04-01T20:41:13.431Z,30.87
2019-04-01T20:43:44.218Z,30.07
2019-04-01T20:46:14.526Z,32.33
2019-04-01T20:48:44.519Z,33.53
2019-04-01T20:51:14.368Z,33.57
2019-04-01T20:53:44.576Z,32.10
2019-04-01T20:56:14.387Z,31.70
2019-04-01T20:58:44.259Z,33.50
2019-04-01T21:01:14.022Z,31.10
2019-04-01T21:03:44.540Z,33.10
2019-04-01T21:06:14.655Z,31.97
2019-04-01T21:08:44.810Z,33.80
2019-04-01T21:11:14.480Z,30.30
2019-04-01T21:13:44.648Z,32.40
2019-04-01T21:16:14.423Z,33.03
2019-04-01T21:18:45.321Z,31.60
2019-04-01T21:21:17.096Z,34.23
2019-04-01T21:23:46.965Z,34.00
2019-04-01T21:26:16.698Z,31.00
2019-04-01T21:28:46.544Z,31.60
2019-04-01T21:31:17.303Z,31.43
2019-04-01T21:33:47.508Z,30.23
2019-04-01T21:36:17.215Z,29.27
2019-04-01T21:38:46.981Z,34.20
2019-04-01T21:41:20.442Z,29.60
2019-04-01T21:43:49.793Z,31.10
2019-04-01T21:46:19.842Z,31.93
2019-04-01T21:48:49.637Z,36.40
2019-04-01T21:51:19.424Z,32.20
2019-04-01T21:53:49.288Z,33.10
2019-04-01T21:56:19.987Z,35.67
2019-04-01T21:58:50.009Z,32.70
2019-04-01T22:01:19.617Z,35.00
2019-04-01T22:03:50.028Z,29.50
2019-04-01T22:06:19.978Z,31.00
2019-04-01T22:08:49.847Z,36.83
2019-04-01T22:11:20.572Z,35.23
2019-04-01T22:13:50.545Z,31.70
2019-04-01T22:16:20.425Z,29.43
2019-04-01T22:18:50.608Z,32.13
2019-04-01T22:21:20.469Z,29.30
2019-04-01T22:23:50.612Z,35.10
2019-04-01T22:26:20.400Z,35.77
2019-04-01T22:28:51.076Z,32.43
2019-04-01T22:31:21.010Z,29.17
2019-04-01T22:33:50.921Z,33.33
2019-04-01T22:36:30.467Z,37.50
2019-04-01T22:38:52.218Z,35.80
2019-04-01T22:41:21.921Z,35.73
2019-04-01T22:43:51.767Z,30.50
2019-04-01T22:46:21.528Z,35.43
2019-04-01T22:48:51.359Z,32.50
2019-04-01T22:51:21.045Z,36.20
2019-04-01T22:53:50.907Z,35.90
2019-04-01T22:56:20.896Z,33.53
2019-04-01T22:58:51.220Z,30.93
2019-04-01T23:01:21.207Z,28.63
2019-04-01T23:03:51.229Z,40.90
2019-04-01T23:06:20.936Z,31.10
2019-04-01T23:08:50.810Z,30.30
2019-04-01T23:11:20.495Z,34.30
2019-04-01T23:13:50.238Z,31.67
2019-04-01T23:16:20.156Z,29.23
2019-04-01T23:18:49.922Z,35.17
2019-04-01T23:21:19.733Z,32.87
2019-04-01T23:23:49.637Z,31.77
2019-04-01T23:26:19.445Z,34.40
2019-04-01T23:28:49.322Z,36.03
2019-04-01T23:31:19.225Z,36.20
2019-04-01T23:33:48.878Z,33.33
2019-04-01T23:36:19.041Z,34.03
2019-04-01T23:38:48.716Z,29.43
2019-04-01T23:41:18.628Z,30.90
2019-04-01T23:43:48.315Z,31.40
2019-04-01T23:46:19.082Z,27.80
2019-04-01T23:48:49.400Z,31.70
2019-04-01T23:51:19.107Z,38.97
2019-04-01T23:53:48.780Z,33.57
2019-04-01T23:56:18.559Z,37.03
2019-04-01T23:58:48.263Z,36.80
